Time;durP1;ratioP1;P1;durP2;ratioP2;P2;SDS_P1;SDS_P2;PMS_P1;PMS_P2;Temp;Humidity;BMP_temperature;BMP_pressure;BME280_temperature;BME280_humidity;BME280_pressure;Samples;Min_cycle;Max_cycle;Signal;HPM_P1;HPM_P2
2022/06/27 00:01:47;;;;;;;5.05;1.95;;;18.80;91.80;;;;;;4998968;28;20034;-88
2022/06/27 00:04:13;;;;;;;6.03;2.60;;;18.80;91.70;;;;;;5016555;28;20026;-91
2022/06/27 00:06:38;;;;;;;4.22;1.77;;;18.80;91.70;;;;;;4982838;28;20034;-91
2022/06/27 00:09:04;;;;;;;5.00;1.92;;;18.80;91.70;;;;;;4999023;28;20068;-93
2022/06/27 00:11:31;;;;;;;4.75;2.30;;;18.80;91.80;;;;;;4999353;28;20022;-92
2022/06/27 00:13:56;;;;;;;5.53;1.88;;;18.80;91.80;;;;;;4998975;28;20033;-90
2022/06/27 00:16:22;;;;;;;4.57;2.67;;;18.80;91.80;;;;;;5015106;28;20409;-90
2022/06/27 00:18:48;;;;;;;5.00;2.08;;;18.80;91.90;;;;;;5014460;28;20053;-91
2022/06/27 00:21:14;;;;;;;7.07;2.53;;;18.80;91.90;;;;;;5014504;28;20105;-90
2022/06/27 00:23:39;;;;;;;5.35;1.88;;;18.70;91.90;;;;;;5015089;28;20030;-90
2022/06/27 00:26:05;;;;;;;7.72;2.20;;;18.70;91.90;;;;;;5013677;28;20026;-90
2022/06/27 00:28:31;;;;;;;3.97;1.83;;;18.70;91.90;;;;;;5014655;28;20041;-90
2022/06/27 00:30:56;;;;;;;5.38;2.30;;;18.70;91.90;;;;;;5014850;28;20034;-91
2022/06/27 00:33:22;;;;;;;5.22;2.22;;;18.70;91.80;;;;;;4981732;28;20033;-89
2022/06/27 00:35:49;;;;;;;6.93;1.88;;;18.70;91.90;;;;;;5015103;28;20481;-90
2022/06/27 00:38:15;;;;;;;6.65;2.47;;;18.70;91.90;;;;;;5014481;28;20034;-90
2022/06/27 00:40:41;;;;;;;6.43;1.77;;;18.70;91.90;;;;;;5014987;28;20026;-90
2022/06/27 00:43:07;;;;;;;4.13;1.98;;;18.70;91.90;;;;;;5013876;28;20022;-90
2022/06/27 00:45:33;;;;;;;3.38;1.98;;;18.70;91.90;;;;;;4997131;28;20026;-88
2022/06/27 00:47:58;;;;;;;3.58;1.42;;;18.70;91.90;;;;;;5015838;28;20025;-87
2022/06/27 00:50:24;;;;;;;4.72;1.60;;;18.70;91.80;;;;;;4983817;28;20030;-87
2022/06/27 00:52:50;;;;;;;3.92;1.30;;;18.70;91.70;;;;;;5016073;28;20041;-87
2022/06/27 00:55:16;;;;;;;4.10;1.52;;;18.70;91.70;;;;;;5016004;28;20026;-86
2022/06/27 00:57:43;;;;;;;5.18;1.50;;;18.70;92.00;;;;;;4999948;28;20072;-87
2022/06/27 01:00:09;;;;;;;3.67;1.38;;;18.70;91.80;;;;;;5015549;28;20029;-87
2022/06/27 01:02:38;;;;;;;4.53;1.52;;;18.70;91.90;;;;;;5015898;28;20409;-87
2022/06/27 01:05:05;;;;;;;3.75;1.58;;;18.70;91.90;;;;;;5016013;28;20018;-87
2022/06/27 01:07:31;;;;;;;5.68;2.00;;;18.70;91.90;;;;;;5017484;28;20019;-87
2022/06/27 01:09:59;;;;;;;3.60;2.20;;;18.70;91.90;;;;;;5017734;28;20033;-87
2022/06/27 01:12:25;;;;;;;5.60;2.25;;;18.70;92.00;;;;;;5019623;28;20014;-87
2022/06/27 01:14:51;;;;;;;4.43;2.00;;;18.60;92.00;;;;;;5003806;28;20429;-87
2022/06/27 01:17:17;;;;;;;5.00;1.88;;;18.60;92.10;;;;;;5004290;28;20069;-87
2022/06/27 01:19:42;;;;;;;5.05;2.03;;;18.70;92.20;;;;;;5016926;28;20545;-87
2022/06/27 01:22:09;;;;;;;8.75;2.58;;;18.60;92.20;;;;;;5017260;28;20133;-87
2022/06/27 01:24:36;;;;;;;5.30;2.03;;;18.60;92.20;;;;;;5001813;28;20069;-87
2022/06/27 01:27:02;;;;;;;6.05;2.30;;;18.60;92.20;;;;;;5018195;28;20026;-86
2022/06/27 01:29:28;;;;;;;5.00;2.08;;;18.60;92.30;;;;;;5000029;28;20025;-86
2022/06/27 01:31:53;;;;;;;4.90;2.20;;;18.60;92.40;;;;;;5002298;28;20101;-92
2022/06/27 01:34:20;;;;;;;9.32;1.83;;;18.60;92.40;;;;;;5019693;28;20041;-90
2022/06/27 01:36:49;;;;;;;5.05;2.40;;;18.60;92.50;;;;;;5017295;28;20014;-90
2022/06/27 01:39:21;;;;;;;4.85;1.83;;;18.60;92.60;;;;;;5017496;28;20034;-90
2022/06/27 01:41:55;;;;;;;4.72;2.00;;;18.60;92.70;;;;;;5016406;28;20018;-90
2022/06/27 01:44:25;;;;;;;4.88;2.25;;;18.60;92.80;;;;;;5017334;28;20067;-91
2022/06/27 01:46:52;;;;;;;4.57;2.00;;;18.60;92.70;;;;;;5017400;28;20026;-92
2022/06/27 01:49:19;;;;;;;6.70;2.40;;;18.60;92.70;;;;;;5016678;28;20068;-91
2022/06/27 01:51:47;;;;;;;6.10;2.10;;;18.60;92.70;;;;;;5017682;28;20366;-91
2022/06/27 01:54:15;;;;;;;3.58;1.67;;;18.60;92.70;;;;;;5016932;28;20014;-90
2022/06/27 01:56:44;;;;;;;2.78;1.25;;;18.60;92.70;;;;;;5018281;28;20014;-89
2022/06/27 01:59:11;;;;;;;6.45;1.90;;;18.60;92.60;;;;;;5000707;28;20367;-90
2022/06/27 02:01:39;;;;;;;4.72;1.92;;;18.60;92.60;;;;;;5001076;28;20037;-91
2022/06/27 02:04:05;;;;;;;5.13;1.80;;;18.60;92.60;;;;;;5014074;28;20060;-90
2022/06/27 02:06:31;;;;;;;4.97;1.90;;;18.60;92.80;;;;;;5008988;28;20018;-91
2022/06/27 02:08:58;;;;;;;6.78;1.73;;;18.60;92.50;;;;;;5013313;28;20022;-90
2022/06/27 02:11:25;;;;;;;6.60;2.15;;;18.60;92.50;;;;;;4997351;28;20053;-89
2022/06/27 02:13:52;;;;;;;5.47;1.77;;;18.60;92.60;;;;;;5012087;28;20018;-91
2022/06/27 02:16:19;;;;;;;5.38;1.92;;;18.60;92.70;;;;;;5003160;28;20026;-90
2022/06/27 02:18:46;;;;;;;4.38;2.20;;;18.50;92.80;;;;;;5015086;28;20418;-90
2022/06/27 02:21:15;;;;;;;4.88;1.85;;;18.60;92.90;;;;;;4996310;28;20109;-90
2022/06/27 02:23:41;;;;;;;5.63;2.58;;;18.50;93.00;;;;;;5026324;28;20374;-88
2022/06/27 02:26:08;;;;;;;3.08;1.90;;;18.50;93.40;;;;;;4996566;28;20030;-89
2022/06/27 02:28:34;;;;;;;6.00;2.30;;;18.50;93.20;;;;;;5002057;28;20041;-89
2022/06/27 02:31:01;;;;;;;3.45;1.80;;;18.40;93.20;;;;;;5009986;28;20027;-88
2022/06/27 02:33:46;;;;;;;4.57;2.13;;;18.40;93.30;;;;;;4998114;28;20029;-88
2022/06/27 02:36:17;;;;;;;5.15;2.03;;;18.50;93.50;;;;;;5014114;28;20101;-86
2022/06/27 02:38:44;;;;;;;4.10;1.80;;;18.40;93.50;;;;;;5015405;28;20033;-87
2022/06/27 02:41:15;;;;;;;4.20;1.73;;;18.40;93.50;;;;;;5014560;28;20034;-87
2022/06/27 02:43:44;;;;;;;5.50;2.00;;;18.40;93.60;;;;;;5014979;28;20066;-87
2022/06/27 02:46:10;;;;;;;3.83;1.80;;;18.40;93.60;;;;;;5008937;28;20018;-88
2022/06/27 02:48:37;;;;;;;5.60;2.10;;;18.40;93.60;;;;;;5004241;28;20100;-87
2022/06/27 02:51:09;;;;;;;3.70;1.95;;;18.50;93.60;;;;;;5010482;28;20029;-88
2022/06/27 02:53:50;;;;;;;3.22;1.50;;;18.40;93.60;;;;;;4995348;28;20026;-87
2022/06/27 02:56:21;;;;;;;4.88;2.00;;;18.50;93.90;;;;;;4996299;28;20019;-87
2022/06/27 02:59:18;;;;;;;4.03;1.73;;;18.40;93.60;;;;;;4995924;28;20039;-87
2022/06/27 03:01:46;;;;;;;7.55;2.30;;;18.40;93.60;;;;;;5013825;28;20022;-87
2022/06/27 03:04:12;;;;;;;6.32;1.98;;;18.40;93.50;;;;;;4997986;28;20470;-87
2022/06/27 03:06:38;;;;;;;3.95;2.17;;;18.40;93.40;;;;;;5015210;28;20033;-87
2022/06/27 03:09:03;;;;;;;4.90;2.28;;;18.40;93.40;;;;;;4999528;28;20382;-90
2022/06/27 03:11:29;;;;;;;5.07;2.22;;;18.40;93.30;;;;;;5016184;28;20025;-91
2022/06/27 03:13:55;;;;;;;5.63;2.30;;;18.40;93.30;;;;;;4998467;28;20130;-85
2022/06/27 03:16:22;;;;;;;5.95;2.45;;;18.40;93.20;;;;;;4996580;28;20029;-86
2022/06/27 03:18:49;;;;;;;3.67;1.80;;;18.40;93.20;;;;;;4996806;28;20119;-85
2022/06/27 03:21:17;;;;;;;4.40;2.30;;;18.40;93.30;;;;;;5013274;28;20018;-86
2022/06/27 03:23:45;;;;;;;4.82;2.35;;;18.40;93.40;;;;;;5013755;28;20053;-86
2022/06/27 03:26:11;;;;;;;4.70;2.78;;;18.30;93.50;;;;;;4996743;28;20026;-85
2022/06/27 03:28:36;;;;;;;9.95;2.83;;;18.30;93.60;;;;;;4996687;28;20030;-85
2022/06/27 03:31:02;;;;;;;6.13;3.28;;;18.30;93.70;;;;;;5012915;28;20021;-86
2022/06/27 03:33:29;;;;;;;3.95;2.40;;;18.20;93.70;;;;;;5012839;28;20132;-85
2022/06/27 03:35:54;;;;;;;7.22;2.58;;;18.20;93.70;;;;;;4996224;28;20029;-84
2022/06/27 03:38:20;;;;;;;7.25;2.72;;;18.20;93.80;;;;;;4996280;28;20044;-85
2022/06/27 03:40:46;;;;;;;7.18;2.60;;;18.20;93.80;;;;;;5013063;28;20071;-85
2022/06/27 03:43:11;;;;;;;3.55;2.28;;;18.20;93.80;;;;;;5014113;28;20503;-85
2022/06/27 03:45:37;;;;;;;7.88;2.72;;;18.20;93.90;;;;;;5013198;28;20025;-85
2022/06/27 03:48:03;;;;;;;6.63;2.58;;;18.20;94.00;;;;;;5014431;28;20421;-85
2022/06/27 03:50:29;;;;;;;3.80;2.50;;;18.20;94.00;;;;;;5012204;28;20084;-84
2022/06/27 03:52:56;;;;;;;8.27;3.10;;;18.10;94.00;;;;;;5012449;28;20030;-85
2022/06/27 03:55:23;;;;;;;3.88;2.15;;;18.10;94.00;;;;;;5012548;28;20073;-85
2022/06/27 03:57:51;;;;;;;6.28;2.30;;;18.00;94.00;;;;;;5012755;28;20049;-85
2022/06/27 04:00:22;;;;;;;4.32;2.28;;;18.00;94.10;;;;;;5013944;28;20478;-86
2022/06/27 04:02:47;;;;;;;4.05;1.95;;;17.90;94.10;;;;;;5014847;28;20017;-86
2022/06/27 04:05:14;;;;;;;8.23;2.67;;;18.00;94.20;;;;;;5013699;28;20038;-86
2022/06/27 04:07:40;;;;;;;3.90;2.38;;;17.90;94.20;;;;;;5013366;28;20041;-87
2022/06/27 04:10:10;;;;;;;6.13;2.65;;;17.90;94.30;;;;;;5013333;28;20030;-87
2022/06/27 04:12:37;;;;;;;7.18;2.90;;;17.90;94.40;;;;;;5013759;28;20532;-88
2022/06/27 04:15:05;;;;;;;6.07;2.85;;;17.90;94.50;;;;;;5014300;28;20026;-87
2022/06/27 04:17:31;;;;;;;6.25;3.10;;;17.90;94.50;;;;;;5014336;28;20025;-87
2022/06/27 04:19:57;;;;;;;5.40;2.83;;;17.90;94.60;;;;;;4996519;28;20049;-87
2022/06/27 04:22:23;;;;;;;6.05;2.90;;;18.00;94.60;;;;;;4999466;28;20039;-88
2022/06/27 04:24:49;;;;;;;8.70;2.95;;;17.90;94.70;;;;;;5018069;28;20033;-88
2022/06/27 04:27:17;;;;;;;4.80;2.95;;;18.00;94.80;;;;;;5001184;28;20026;-87
2022/06/27 04:29:43;;;;;;;9.57;4.13;;;18.00;94.80;;;;;;5001718;28;20018;-88
2022/06/27 04:32:09;;;;;;;8.82;3.17;;;18.00;94.90;;;;;;5020578;28;20057;-89
2022/06/27 04:34:39;;;;;;;6.47;3.05;;;18.00;94.90;;;;;;5002637;28;20076;-86
2022/06/27 04:37:04;;;;;;;7.03;3.65;;;18.00;95.00;;;;;;5019819;28;20022;-89
2022/06/27 04:39:31;;;;;;;8.90;4.20;;;18.10;95.10;;;;;;5001177;28;20057;-88
2022/06/27 04:41:57;;;;;;;5.55;3.17;;;18.10;95.10;;;;;;5015417;28;20050;-89
2022/06/27 04:44:23;;;;;;;4.30;2.95;;;18.10;95.20;;;;;;4999349;28;20022;-87
2022/06/27 04:46:49;;;;;;;4.68;3.03;;;18.20;95.20;;;;;;5016848;28;20036;-89
2022/06/27 04:49:19;;;;;;;6.43;3.40;;;18.20;95.20;;;;;;5016282;28;20388;-88
2022/06/27 04:51:48;;;;;;;6.22;3.30;;;18.30;95.30;;;;;;5000569;28;20093;-88
2022/06/27 04:54:16;;;;;;;6.35;3.55;;;18.30;95.20;;;;;;5018310;28;20032;-88
2022/06/27 04:56:43;;;;;;;9.13;3.72;;;18.40;95.20;;;;;;5015795;28;20030;-89
2022/06/27 04:59:09;;;;;;;7.70;3.83;;;18.40;95.20;;;;;;5013052;28;20092;-87
2022/06/27 05:01:37;;;;;;;8.20;3.33;;;18.40;95.20;;;;;;5017341;28;20026;-89
2022/06/27 05:04:03;;;;;;;6.80;4.10;;;18.40;95.20;;;;;;5017101;28;20028;-88
2022/06/27 05:06:29;;;;;;;9.30;3.65;;;18.50;95.20;;;;;;5016149;28;20036;-90
2022/06/27 05:08:54;;;;;;;5.70;3.03;;;18.50;95.30;;;;;;5016708;28;20026;-90
2022/06/27 05:11:20;;;;;;;7.85;3.83;;;18.60;95.30;;;;;;4999824;28;20026;-84
2022/06/27 05:13:47;;;;;;;8.15;3.78;;;18.60;95.30;;;;;;4999267;28;20057;-84
2022/06/27 05:16:14;;;;;;;6.63;3.75;;;18.60;95.40;;;;;;4995350;28;20429;-83
2022/06/27 05:18:40;;;;;;;7.15;3.97;;;18.70;95.40;;;;;;5012544;28;20112;-83
2022/06/27 05:21:08;;;;;;;7.65;4.28;;;18.70;95.30;;;;;;5012296;28;20026;-83
2022/06/27 05:23:34;;;;;;;8.95;4.05;;;18.70;95.30;;;;;;4997945;28;20030;-82
2022/06/27 05:26:02;;;;;;;8.18;4.15;;;18.70;95.30;;;;;;5010061;28;20026;-85
2022/06/27 05:28:28;;;;;;;6.38;4.10;;;18.80;95.30;;;;;;5003873;28;20026;-82
2022/06/27 05:30:53;;;;;;;6.72;3.92;;;18.80;95.30;;;;;;4992835;28;20081;-83
2022/06/27 05:33:19;;;;;;;8.32;4.25;;;18.80;95.30;;;;;;4994528;28;20029;-83
2022/06/27 05:35:45;;;;;;;7.95;4.40;;;18.80;95.40;;;;;;4993435;28;20494;-83
2022/06/27 05:38:10;;;;;;;6.97;4.13;;;18.80;95.40;;;;;;4997844;28;20022;-83
2022/06/27 05:40:37;;;;;;;8.40;4.85;;;18.80;95.40;;;;;;4997484;28;20116;-83
2022/06/27 05:43:03;;;;;;;8.65;4.68;;;18.80;95.40;;;;;;4998516;28;20109;-83
2022/06/27 05:45:29;;;;;;;8.02;3.92;;;18.90;95.40;;;;;;4998697;28;20541;-83
2022/06/27 05:48:02;;;;;;;7.82;4.32;;;18.90;95.50;;;;;;5013490;28;20068;-83
2022/06/27 05:50:29;;;;;;;7.80;4.03;;;18.90;95.50;;;;;;5011270;28;20014;-83
2022/06/27 05:52:59;;;;;;;6.25;4.30;;;18.90;95.50;;;;;;5010658;28;20410;-83
2022/06/27 05:55:25;;;;;;;8.68;5.13;;;18.90;95.50;;;;;;4996333;28;20488;-83
2022/06/27 05:57:54;;;;;;;8.90;4.88;;;18.90;95.50;;;;;;4986122;28;20367;-83
2022/06/27 06:00:21;;;;;;;9.13;5.60;;;18.90;95.70;;;;;;4997870;28;20113;-84
2022/06/27 06:02:47;;;;;;;8.88;5.15;;;18.90;95.50;;;;;;5010874;28;20026;-81
2022/06/27 06:05:14;;;;;;;9.65;5.82;;;18.90;95.50;;;;;;5012045;28;20029;-81
2022/06/27 06:07:42;;;;;;;8.65;4.97;;;18.90;95.60;;;;;;5004704;28;20022;-82
2022/06/27 06:10:08;;;;;;;12.68;5.35;;;19.00;95.70;;;;;;4996535;28;20503;-82
2022/06/27 06:12:34;;;;;;;9.38;5.57;;;19.00;95.80;;;;;;5008544;28;20021;-83
2022/06/27 06:15:03;;;;;;;6.97;5.13;;;19.10;95.80;;;;;;5006107;28;20029;-82
2022/06/27 06:17:34;;;;;;;7.30;4.80;;;19.20;95.80;;;;;;5012751;28;20347;-82
2022/06/27 06:20:00;;;;;;;9.52;5.00;;;19.20;95.80;;;;;;5013878;28;20065;-82
2022/06/27 06:22:26;;;;;;;8.30;5.07;;;19.20;95.80;;;;;;4993461;28;20113;-82
2022/06/27 06:24:52;;;;;;;8.10;5.25;;;19.20;95.70;;;;;;5012359;28;20152;-82
2022/06/27 06:27:20;;;;;;;12.82;6.32;;;19.20;95.70;;;;;;4993078;28;20117;-83
2022/06/27 06:29:45;;;;;;;8.43;6.15;;;19.20;95.60;;;;;;5011843;28;20413;-83
2022/06/27 06:32:12;;;;;;;9.38;5.70;;;19.20;95.60;;;;;;4981503;28;20021;-83
2022/06/27 06:34:39;;;;;;;8.45;5.30;;;19.20;95.60;;;;;;5013277;28;20069;-82
2022/06/27 06:37:06;;;;;;;10.48;5.53;;;19.10;95.60;;;;;;5011619;28;20025;-82
2022/06/27 06:39:32;;;;;;;11.02;5.82;;;19.10;95.70;;;;;;5013622;28;20040;-82
2022/06/27 06:41:58;;;;;;;9.30;5.43;;;19.10;95.70;;;;;;4978345;28;20030;-82
2022/06/27 06:44:24;;;;;;;8.15;5.20;;;19.00;95.70;;;;;;4996193;28;20026;-81
2022/06/27 06:46:52;;;;;;;10.35;5.18;;;19.00;95.80;;;;;;5009512;28;20092;-82
2022/06/27 06:49:18;;;;;;;9.13;6.03;;;19.00;95.90;;;;;;5006631;28;20034;-82
2022/06/27 06:51:44;;;;;;;11.57;5.70;;;19.00;96.20;;;;;;4985131;28;20374;-81
2022/06/27 06:54:17;;;;;;;10.00;4.85;;;19.10;95.90;;;;;;5011842;28;20022;-81
2022/06/27 06:56:52;;;;;;;8.88;5.72;;;19.10;95.90;;;;;;5012236;28;20022;-82
2022/06/27 06:59:19;;;;;;;8.35;5.20;;;19.00;95.90;;;;;;4993857;28;20038;-81
2022/06/27 07:01:46;;;;;;;6.68;4.82;;;19.00;95.90;;;;;;5004966;28;20026;-81
2022/06/27 07:04:12;;;;;;;8.25;4.55;;;19.10;95.90;;;;;;5005769;28;20018;-81
2022/06/27 07:06:40;;;;;;;10.65;5.60;;;19.10;95.90;;;;;;4991282;28;20497;-81
2022/06/27 07:09:06;;;;;;;8.73;5.30;;;19.10;95.90;;;;;;5006771;28;20045;-82
2022/06/27 07:11:32;;;;;;;11.98;6.60;;;19.10;95.90;;;;;;5003252;28;20026;-85
2022/06/27 07:13:59;;;;;;;7.88;5.50;;;19.20;95.80;;;;;;5007841;28;20481;-86
2022/06/27 07:16:28;;;;;;;9.75;6.07;;;19.20;95.70;;;;;;5011170;28;20030;-86
2022/06/27 07:19:00;;;;;;;8.32;5.85;;;19.20;95.60;;;;;;5010610;28;20050;-87
2022/06/27 07:21:31;;;;;;;10.15;6.28;;;19.30;95.60;;;;;;5011981;28;20029;-87
2022/06/27 07:23:58;;;;;;;10.50;6.88;;;19.30;95.50;;;;;;5002451;28;20072;-89
2022/06/27 07:26:28;;;;;;;10.32;6.50;;;19.30;95.60;;;;;;5002403;28;20370;-89
2022/06/27 07:28:55;;;;;;;11.07;6.63;;;19.30;95.50;;;;;;5013387;28;20022;-85
2022/06/27 07:31:21;;;;;;;11.25;6.97;;;19.30;95.50;;;;;;5012893;28;20474;-85
2022/06/27 07:34:19;;;;;;;7.75;5.90;;;19.30;95.50;;;;;;5012283;28;20022;-92
2022/06/27 07:36:45;;;;;;;9.50;5.68;;;19.40;95.50;;;;;;5012185;28;20025;-85
2022/06/27 07:39:10;;;;;;;8.50;5.50;;;19.30;95.50;;;;;;4993752;28;20474;-86
2022/06/27 07:41:36;;;;;;;11.02;6.30;;;19.40;95.50;;;;;;5003224;28;20065;-86
2022/06/27 07:44:03;;;;;;;8.27;5.97;;;19.40;95.50;;;;;;5008656;28;20105;-85
2022/06/27 07:46:29;;;;;;;11.43;6.32;;;19.50;95.50;;;;;;5009631;28;20542;-86
2022/06/27 07:49:01;;;;;;;10.82;6.78;;;19.50;95.50;;;;;;5010624;28;20493;-86
2022/06/27 07:51:30;;;;;;;11.32;6.13;;;19.50;95.80;;;;;;5013107;28;20049;-85
2022/06/27 07:54:14;;;;;;;10.02;5.65;;;19.50;95.50;;;;;;5012122;28;20022;-86
2022/06/27 07:56:40;;;;;;;8.48;5.55;;;19.60;95.50;;;;;;4986006;28;20022;-86
2022/06/27 07:59:07;;;;;;;8.82;5.72;;;19.70;95.50;;;;;;5005960;28;20046;-86
2022/06/27 08:01:33;;;;;;;9.43;6.57;;;19.80;95.40;;;;;;5012354;28;20029;-86
2022/06/27 08:03:59;;;;;;;8.95;5.53;;;19.80;95.20;;;;;;5002863;28;20486;-84
2022/06/27 08:06:27;;;;;;;7.68;5.47;;;19.90;95.10;;;;;;5002697;28;20057;-89
2022/06/27 08:09:03;;;;;;;8.82;5.45;;;20.00;95.00;;;;;;5010171;28;20524;-88
2022/06/27 08:11:34;;;;;;;10.57;6.22;;;20.10;95.00;;;;;;5005095;28;20488;-87
2022/06/27 08:14:07;;;;;;;10.13;6.47;;;20.20;94.90;;;;;;5008406;28;20030;-86
2022/06/27 08:16:35;;;;;;;8.87;5.60;;;20.20;94.80;;;;;;5010072;28;20026;-85
2022/06/27 08:19:01;;;;;;;8.35;5.93;;;20.30;94.80;;;;;;5010984;28;20505;-89
2022/06/27 08:21:28;;;;;;;9.70;6.07;;;20.40;94.70;;;;;;5012468;28;20014;-84
2022/06/27 08:24:00;;;;;;;9.07;5.50;;;20.50;94.50;;;;;;5010411;28;20379;-88
2022/06/27 08:26:27;;;;;;;6.78;4.93;;;20.50;94.20;;;;;;5010826;28;20101;-84
2022/06/27 08:28:58;;;;;;;8.80;5.50;;;20.60;94.30;;;;;;5009691;28;20045;-83
2022/06/27 08:32:02;;;;;;;7.45;5.10;;;20.70;93.70;;;;;;5004832;28;20019;-85
2022/06/27 08:34:27;;;;;;;6.93;4.93;;;20.70;93.50;;;;;;5004801;28;20121;-85
2022/06/27 08:36:54;;;;;;;7.95;5.13;;;20.80;93.40;;;;;;4991046;28;20110;-85
2022/06/27 08:39:23;;;;;;;9.07;6.10;;;20.80;93.40;;;;;;4993902;28;20117;-84
2022/06/27 08:41:58;;;;;;;9.55;5.90;;;21.00;93.40;;;;;;5011734;28;20049;-83
2022/06/27 08:44:28;;;;;;;7.65;4.35;;;21.10;93.30;;;;;;4991407;28;20023;-85
2022/06/27 08:46:55;;;;;;;8.40;4.80;;;21.30;93.10;;;;;;5009771;28;20026;-83
2022/06/27 08:49:22;;;;;;;8.88;4.85;;;21.30;92.80;;;;;;5009114;28;20122;-83
2022/06/27 08:51:48;;;;;;;7.15;4.20;;;21.50;92.40;;;;;;4993690;28;20061;-81
2022/06/27 08:54:14;;;;;;;7.93;3.60;;;21.60;92.10;;;;;;5007864;28;20415;-82
2022/06/27 08:56:40;;;;;;;6.70;3.85;;;21.60;91.70;;;;;;4992475;28;20100;-81
2022/06/27 08:59:06;;;;;;;7.22;4.45;;;21.70;91.40;;;;;;4993031;28;20172;-81
2022/06/27 09:01:32;;;;;;;8.00;4.38;;;21.80;91.30;;;;;;4990892;28;20501;-81
2022/06/27 09:04:06;;;;;;;6.05;3.85;;;21.80;91.10;;;;;;5008705;28;20538;-82
2022/06/27 09:06:44;;;;;;;6.50;3.95;;;21.90;90.90;;;;;;5006702;28;20034;-81
2022/06/27 09:09:12;;;;;;;4.63;2.53;;;21.90;90.40;;;;;;5009590;28;20049;-82
2022/06/27 09:11:46;;;;;;;4.20;2.45;;;21.90;90.10;;;;;;5015635;28;20057;-81
2022/06/27 09:14:34;;;;;;;3.58;2.78;;;22.00;89.10;;;;;;5007346;28;20022;-81
2022/06/27 09:17:04;;;;;;;4.72;2.90;;;22.00;88.20;;;;;;5012765;28;20029;-81
2022/06/27 09:19:46;;;;;;;5.82;3.40;;;22.00;87.50;;;;;;5014816;28;20138;-81
2022/06/27 09:22:15;;;;;;;6.68;3.60;;;22.00;87.00;;;;;;5013615;28;20036;-81
2022/06/27 09:25:05;;;;;;;6.10;3.08;;;22.10;86.60;;;;;;4995285;28;20026;-81
2022/06/27 09:27:40;;;;;;;8.02;3.25;;;22.10;86.20;;;;;;5022541;28;20034;-92
2022/06/27 09:30:18;;;;;;;5.43;2.70;;;22.20;86.00;;;;;;5002443;28;20509;-89
2022/06/27 09:32:45;;;;;;;5.85;3.50;;;22.30;85.50;;;;;;5006535;28;20018;-90
2022/06/27 09:35:45;;;;;;;6.05;2.90;;;22.40;85.40;;;;;;4996005;28;20054;-89
2022/06/27 09:38:10;;;;;;;6.70;3.00;;;22.50;84.80;;;;;;4971146;28;20074;-87
2022/06/27 09:40:39;;;;;;;7.53;3.00;;;22.60;84.90;;;;;;4981102;28;20057;-88
2022/06/27 09:43:07;;;;;;;5.10;3.28;;;22.60;84.60;;;;;;5012160;28;20064;-88
2022/06/27 09:45:33;;;;;;;4.20;2.92;;;22.70;84.10;;;;;;4998618;28;20360;-87
2022/06/27 09:48:04;;;;;;;6.90;3.33;;;22.70;83.70;;;;;;5011880;28;20367;-88
2022/06/27 09:50:33;;;;;;;8.23;3.85;;;22.80;83.20;;;;;;4997032;28;20053;-85
2022/06/27 09:53:00;;;;;;;5.88;2.92;;;22.80;83.40;;;;;;5012409;28;20048;-86
2022/06/27 09:55:26;;;;;;;5.03;2.55;;;22.80;81.80;;;;;;4997692;28;20089;-89
2022/06/27 09:57:55;;;;;;;7.40;3.00;;;22.80;81.10;;;;;;5011113;28;20053;-88
2022/06/27 10:00:22;;;;;;;6.35;3.50;;;22.80;80.60;;;;;;4998433;28;20033;-87
2022/06/27 10:02:49;;;;;;;5.82;3.33;;;22.80;80.20;;;;;;5015293;28;20029;-84
2022/06/27 10:05:19;;;;;;;8.35;2.83;;;22.70;79.90;;;;;;4996867;28;20478;-89
2022/06/27 10:07:54;;;;;;;6.30;3.10;;;22.70;79.50;;;;;;5013741;28;20032;-89
2022/06/27 10:10:20;;;;;;;5.00;2.20;;;22.70;79.30;;;;;;5020056;28;20030;-88
2022/06/27 10:13:02;;;;;;;4.63;2.10;;;22.80;79.20;;;;;;4994595;28;20399;-89
2022/06/27 10:15:29;;;;;;;6.78;2.15;;;22.90;78.70;;;;;;5012763;28;20030;-87
2022/06/27 10:17:57;;;;;;;7.82;2.60;;;23.00;78.40;;;;;;4997086;28;20373;-88
2022/06/27 10:20:26;;;;;;;6.30;2.50;;;23.00;77.90;;;;;;5012029;28;20062;-87
2022/06/27 10:23:48;;;;;;;3.83;1.98;;;23.10;77.10;;;;;;5013524;28;20032;-84
2022/06/27 10:26:05;;;;;;;5.60;1.63;;;23.10;76.30;;;;;;5013227;28;20037;-89
2022/06/27 10:28:35;;;;;;;4.65;2.00;;;23.00;76.20;;;;;;5013806;28;20128;-90
2022/06/27 10:31:01;;;;;;;6.03;2.72;;;23.00;76.00;;;;;;5014774;28;20466;-90
2022/06/27 10:33:26;;;;;;;7.00;2.63;;;23.00;75.70;;;;;;5006041;28;20227;-87
2022/06/27 10:35:57;;;;;;;5.07;2.00;;;23.10;75.80;;;;;;5003440;28;20022;-86
2022/06/27 10:38:33;;;;;;;4.47;2.42;;;23.20;75.70;;;;;;4997705;28;20373;-85
2022/06/27 10:41:01;;;;;;;5.90;1.92;;;23.40;75.00;;;;;;4998482;28;20496;-85
2022/06/27 10:43:38;;;;;;;3.45;1.50;;;23.50;74.60;;;;;;5009907;28;20030;-85
2022/06/27 10:46:10;;;;;;;4.10;1.70;;;23.60;73.90;;;;;;5014110;28;20030;-85
2022/06/27 10:48:37;;;;;;;6.28;1.52;;;23.80;73.10;;;;;;5013270;28;20025;-85
2022/06/27 10:51:18;;;;;;;6.13;1.95;;;23.80;72.40;;;;;;5014383;28;20034;-85
2022/06/27 10:53:52;;;;;;;4.60;2.25;;;23.90;71.50;;;;;;5013866;28;20069;-85
2022/06/27 10:56:29;;;;;;;3.53;1.77;;;24.00;71.30;;;;;;4999137;28;20466;-84
2022/06/27 10:58:59;;;;;;;4.80;1.60;;;24.10;70.90;;;;;;5017093;28;20060;-84
2022/06/27 11:01:25;;;;;;;4.45;1.60;;;24.00;70.50;;;;;;5002884;28;20022;-83
2022/06/27 11:03:51;;;;;;;3.92;0.95;;;24.10;70.00;;;;;;5022398;28;20022;-85
2022/06/27 11:06:18;;;;;;;3.90;1.20;;;24.10;69.30;;;;;;5004852;28;20025;-85
2022/06/27 11:08:47;;;;;;;4.32;1.17;;;24.10;69.20;;;;;;5022851;28;20030;-84
2022/06/27 11:11:25;;;;;;;5.13;1.30;;;24.10;69.50;;;;;;5017890;28;20054;-84
2022/06/27 11:13:59;;;;;;;4.75;1.58;;;24.30;69.60;;;;;;5011528;28;20482;-84
2022/06/27 11:16:25;;;;;;;4.60;1.75;;;24.30;69.30;;;;;;5013768;28;20022;-84
2022/06/27 11:18:52;;;;;;;4.90;1.73;;;24.40;68.80;;;;;;5019503;28;20046;-84
2022/06/27 11:21:23;;;;;;;4.22;1.85;;;24.50;68.00;;;;;;5031295;28;20026;-84
2022/06/27 11:23:56;;;;;;;4.75;1.58;;;24.50;67.50;;;;;;5034787;28;20014;-85
2022/06/27 11:26:27;;;;;;;6.00;1.77;;;24.50;67.20;;;;;;5027964;28;20051;-85
2022/06/27 11:34:24;;;;;;;4.22;2.00;;;24.40;66.50;;;;;;5017762;28;20092;-83
2022/06/27 11:36:51;;;;;;;6.07;1.70;;;24.30;66.40;;;;;;5000240;28;20029;-85
2022/06/27 11:39:26;;;;;;;5.03;1.52;;;24.20;66.30;;;;;;5017396;28;20065;-85
2022/06/27 11:42:14;;;;;;;4.45;1.25;;;24.10;66.40;;;;;;5029661;28;20042;-86
2022/06/27 11:45:06;;;;;;;3.85;1.45;;;24.10;66.70;;;;;;5020613;28;20021;-85
2022/06/27 11:47:38;;;;;;;5.63;1.40;;;23.90;66.80;;;;;;5001800;28;20437;-85
2022/06/27 11:50:05;;;;;;;4.43;1.67;;;23.90;67.30;;;;;;5016362;28;20029;-85
2022/06/27 11:52:42;;;;;;;5.22;1.90;;;23.90;67.70;;;;;;5015581;28;20018;-85
2022/06/27 11:55:09;;;;;;;5.90;1.55;;;23.90;67.30;;;;;;5016873;28;20049;-86
2022/06/27 11:57:36;;;;;;;3.80;1.50;;;23.90;67.20;;;;;;5011965;28;20466;-86
2022/06/27 12:00:05;;;;;;;6.25;2.20;;;23.90;67.20;;;;;;5008724;28;20065;-85
2022/06/27 12:02:37;;;;;;;5.50;1.70;;;23.90;67.10;;;;;;5012867;28;20025;-85
2022/06/27 12:05:05;;;;;;;5.70;1.50;;;23.90;67.10;;;;;;5012022;28;20101;-87
2022/06/27 12:07:32;;;;;;;3.67;1.52;;;23.90;67.10;;;;;;5014761;28;20083;-86
2022/06/27 12:09:57;;;;;;;8.52;2.30;;;23.90;67.10;;;;;;4997534;28;20034;-87
2022/06/27 12:12:25;;;;;;;7.03;2.20;;;23.90;67.10;;;;;;5012511;28;20026;-85
2022/06/27 12:14:53;;;;;;;4.95;2.05;;;23.90;67.30;;;;;;5014012;28;20105;-85
2022/06/27 12:17:20;;;;;;;5.32;1.95;;;23.90;67.40;;;;;;5013055;28;20451;-86
2022/06/27 12:19:46;;;;;;;7.22;2.38;;;24.00;67.60;;;;;;5011971;28;20053;-83
2022/06/27 12:22:18;;;;;;;5.85;2.13;;;24.30;67.80;;;;;;5013785;28;20026;-83
2022/06/27 12:24:45;;;;;;;5.75;2.67;;;24.60;67.40;;;;;;5012775;28;20108;-84
2022/06/27 12:27:10;;;;;;;7.30;2.60;;;24.70;66.90;;;;;;4995977;28;20026;-83
2022/06/27 12:29:36;;;;;;;6.80;2.30;;;24.80;66.50;;;;;;4996238;28;20053;-85
2022/06/27 12:32:02;;;;;;;4.55;1.70;;;24.90;66.10;;;;;;5014303;28;20401;-83
2022/06/27 12:34:28;;;;;;;6.15;2.17;;;24.90;65.70;;;;;;5012160;28;20041;-84
2022/06/27 12:36:55;;;;;;;6.32;2.08;;;24.80;65.50;;;;;;4995701;28;20080;-85
2022/06/27 12:39:20;;;;;;;7.32;2.40;;;24.80;65.40;;;;;;5014060;28;20115;-83
2022/06/27 12:41:46;;;;;;;5.93;1.80;;;24.90;65.40;;;;;;5012395;28;20466;-88
2022/06/27 12:44:12;;;;;;;5.85;1.92;;;24.80;65.50;;;;;;5017855;28;20043;-88
2022/06/27 12:46:38;;;;;;;6.13;2.38;;;24.80;65.20;;;;;;4989724;28;20080;-83
2022/06/27 12:49:03;;;;;;;4.60;2.15;;;24.80;64.90;;;;;;4999143;28;20026;-82
2022/06/27 12:51:29;;;;;;;4.82;2.00;;;24.70;64.50;;;;;;5016588;28;20037;-84
2022/06/27 12:53:56;;;;;;;6.50;1.83;;;24.60;64.20;;;;;;5017989;28;20018;-87
2022/06/27 12:56:22;;;;;;;5.53;1.85;;;24.60;64.30;;;;;;5003490;28;20031;-83
2022/06/27 12:58:54;;;;;;;3.85;1.65;;;24.40;64.50;;;;;;4996022;28;20042;-83